createdAt,value
2022-10-01T00:00:09.063Z,21.70
2022-10-01T00:02:59.572Z,23.60
2022-10-01T00:06:01.109Z,20.30
2022-10-01T00:08:31.268Z,26.80
2022-10-01T00:11:10.668Z,23.40
2022-10-01T00:14:02.076Z,22.30
2022-10-01T00:16:42.826Z,22.40
2022-10-01T00:19:15.779Z,25.90
2022-10-01T00:21:54.916Z,24.80
2022-10-01T00:24:29.771Z,24.00
2022-10-01T00:27:23.532Z,25.40
2022-10-01T00:30:04.802Z,28.10
2022-10-01T00:32:46.338Z,25.50
2022-10-01T00:36:05.765Z,26.40
2022-10-01T00:39:02.695Z,23.00
2022-10-01T00:41:44.542Z,27.80
2022-10-01T00:45:08.518Z,26.30
2022-10-01T00:47:52.043Z,26.30
2022-10-01T00:51:16.642Z,24.80
2022-10-01T00:54:24.031Z,31.40
2022-10-01T00:57:31.002Z,29.50
2022-10-01T01:00:15.196Z,27.30
2022-10-01T01:03:00.919Z,31.30
2022-10-01T01:05:47.832Z,26.90
2022-10-01T01:08:54.133Z,27.70
2022-10-01T01:12:01.510Z,25.40
2022-10-01T01:15:11.576Z,25.80
2022-10-01T01:18:26.725Z,26.80
2022-10-01T01:21:28.409Z,26.50
2022-10-01T01:24:29.010Z,27.00
2022-10-01T01:27:29.655Z,30.40
2022-10-01T01:30:10.597Z,29.50
2022-10-01T01:32:56.132Z,26.30
2022-10-01T01:35:56.357Z,25.60
2022-10-01T01:38:41.435Z,27.20
2022-10-01T01:41:15.692Z,27.30
2022-10-01T01:43:51.985Z,30.40
2022-10-01T01:49:04.587Z,29.30
2022-10-01T01:51:52.049Z,28.90
2022-10-01T01:54:20.878Z,30.50
2022-10-01T01:56:58.592Z,26.90
2022-10-01T01:59:32.805Z,27.70
2022-10-01T02:02:08.832Z,27.70
2022-10-01T02:04:46.107Z,26.70
2022-10-01T02:08:08.230Z,25.70
2022-10-01T02:11:25.190Z,27.90
2022-10-01T02:14:39.136Z,30.40
2022-10-01T02:17:21.479Z,27.70
2022-10-01T02:20:04.787Z,26.80
2022-10-01T02:23:10.292Z,26.50
2022-10-01T02:26:01.328Z,28.30
2022-10-01T02:28:43.386Z,26.20
2022-10-01T02:31:15.011Z,31.80
2022-10-01T02:33:51.936Z,32.60
2022-10-01T02:36:27.539Z,28.40
2022-10-01T02:39:32.252Z,29.50
2022-10-01T02:42:29.439Z,29.80
2022-10-01T02:45:23.921Z,33.30
2022-10-01T02:48:13.435Z,34.40
2022-10-01T02:51:20.372Z,30.30
2022-10-01T02:54:32.526Z,32.10
2022-10-01T02:57:24.618Z,28.90
2022-10-01T03:00:03.524Z,30.10
2022-10-01T03:02:59.899Z,30.30
2022-10-01T03:05:34.369Z,30.80
2022-10-01T03:08:28.507Z,32.40
2022-10-01T03:11:30.229Z,31.00
2022-10-01T03:14:25.938Z,32.50
2022-10-01T03:17:14.540Z,31.90
2022-10-01T03:19:51.723Z,29.50
2022-10-01T03:22:48.265Z,30.40
2022-10-01T03:25:33.344Z,30.70
2022-10-01T03:28:36.388Z,31.50
2022-10-01T03:31:49.024Z,29.60
2022-10-01T03:34:30.554Z,29.90
2022-10-01T03:37:31.399Z,31.00
2022-10-01T03:40:50.052Z,28.60
2022-10-01T03:43:38.383Z,29.00
2022-10-01T03:46:26.308Z,28.30
2022-10-01T03:49:05.490Z,29.00
2022-10-01T03:52:02.827Z,29.90
2022-10-01T03:54:32.653Z,28.30
2022-10-01T03:57:23.095Z,29.10
2022-10-01T04:00:14.891Z,28.60
2022-10-01T04:03:13.149Z,28.70
2022-10-01T04:05:46.678Z,30.00
2022-10-01T04:08:24.208Z,28.40
2022-10-01T04:11:30.081Z,29.30
2022-10-01T04:14:29.919Z,28.80
2022-10-01T04:17:11.212Z,29.40
2022-10-01T04:20:05.797Z,26.70
2022-10-01T04:22:58.189Z,30.40
2022-10-01T04:25:46.951Z,27.20
2022-10-01T04:28:29.117Z,24.90
2022-10-01T04:31:26.735Z,25.10
2022-10-01T04:34:03.627Z,26.30
2022-10-01T04:37:26.081Z,26.70
2022-10-01T04:40:08.377Z,26.80
2022-10-01T04:42:58.972Z,29.10
2022-10-01T04:45:47.735Z,24.20
2022-10-01T04:48:48.456Z,25.40
2022-10-01T04:51:31.730Z,24.50
2022-10-01T04:54:09.137Z,26.70
2022-10-01T04:57:01.339Z,27.90
2022-10-01T04:59:48.029Z,24.60
2022-10-01T05:02:29.710Z,29.60
2022-10-01T05:05:20.252Z,26.30
2022-10-01T05:07:57.937Z,25.20
2022-10-01T05:10:29.874Z,28.50
2022-10-01T05:14:07.058Z,30.50
2022-10-01T05:16:35.955Z,26.50
2022-10-01T05:19:17.623Z,25.70
2022-10-01T05:21:46.232Z,29.10
2022-10-01T05:24:17.687Z,27.30
2022-10-01T05:26:46.123Z,28.40
2022-10-01T05:29:21.821Z,27.70
2022-10-01T05:31:57.769Z,25.70
2022-10-01T05:34:36.752Z,29.80
2022-10-01T05:37:21.973Z,25.90
2022-10-01T05:40:02.229Z,27.40
2022-10-01T05:43:02.718Z,25.50
2022-10-01T05:45:42.758Z,27.10
2022-10-01T05:48:17.985Z,24.90
2022-10-01T05:51:10.071Z,25.20
2022-10-01T05:53:41.489Z,21.20
2022-10-01T05:56:28.010Z,21.30
2022-10-01T05:59:03.365Z,26.40
2022-10-01T06:01:38.390Z,20.30
2022-10-01T06:04:24.534Z,20.90
2022-10-01T06:07:01.071Z,23.60
2022-10-01T06:09:34.803Z,24.60
2022-10-01T06:12:26.402Z,22.70
2022-10-01T06:15:21.505Z,23.80
2022-10-01T06:17:53.729Z,22.30
2022-10-01T06:20:24.648Z,21.30
2022-10-01T06:23:22.426Z,20.40
2022-10-01T06:25:57.845Z,18.40
2022-10-01T06:28:38.469Z,20.00
2022-10-01T06:31:09.677Z,22.30
2022-10-01T06:34:17.332Z,20.20
2022-10-01T06:36:46.503Z,23.70
2022-10-01T06:39:15.000Z,17.80
2022-10-01T06:41:52.684Z,20.60
2022-10-01T06:44:25.049Z,21.30
2022-10-01T06:46:56.635Z,20.90
2022-10-01T06:49:30.904Z,20.00
2022-10-01T06:52:17.486Z,19.90
2022-10-01T06:54:57.578Z,18.60
2022-10-01T06:57:34.149Z,19.80
2022-10-01T07:00:19.559Z,20.00
2022-10-01T07:03:11.545Z,18.70
2022-10-01T07:05:46.659Z,18.80
2022-10-01T07:08:18.625Z,18.40
2022-10-01T07:10:47.658Z,18.30
2022-10-01T07:13:20.521Z,20.30
2022-10-01T07:15:49.804Z,19.90
2022-10-01T07:18:23.129Z,17.00
2022-10-01T07:20:58.207Z,19.50
2022-10-01T07:23:29.664Z,16.90
2022-10-01T07:26:19.367Z,16.30
2022-10-01T07:29:14.349Z,17.40
2022-10-01T07:32:02.694Z,18.10
2022-10-01T07:34:43.693Z,16.20
2022-10-01T07:37:24.658Z,17.90
2022-10-01T07:39:56.374Z,19.40
2022-10-01T07:42:34.818Z,16.50
2022-10-01T07:45:09.573Z,18.00
2022-10-01T07:47:42.041Z,17.40
2022-10-01T07:50:12.748Z,16.90
2022-10-01T07:52:43.726Z,16.70
2022-10-01T07:55:15.510Z,19.10
2022-10-01T07:57:44.876Z,18.70
2022-10-01T08:00:19.736Z,18.40
2022-10-01T08:02:56.288Z,18.70
2022-10-01T08:05:31.298Z,17.20
2022-10-01T08:08:05.034Z,18.00
2022-10-01T08:10:43.022Z,16.00
2022-10-01T08:13:23.186Z,19.10
2022-10-01T08:16:10.732Z,20.40
2022-10-01T08:18:55.824Z,19.80
2022-10-01T08:21:36.722Z,18.80
2022-10-01T08:24:07.080Z,18.50
2022-10-01T08:26:52.585Z,18.70
2022-10-01T08:29:23.247Z,18.40
2022-10-01T08:31:59.314Z,15.90
2022-10-01T08:34:32.995Z,17.60
2022-10-01T08:37:04.327Z,17.20
2022-10-01T08:39:37.525Z,17.70
2022-10-01T08:42:35.759Z,17.10
2022-10-01T08:45:50.942Z,17.00
2022-10-01T08:48:35.459Z,14.70
2022-10-01T08:51:42.475Z,15.00
2022-10-01T08:54:33.548Z,17.30
2022-10-01T08:57:12.747Z,17.30
2022-10-01T08:59:47.272Z,13.30
2022-10-01T09:02:26.330Z,16.60
2022-10-01T09:05:02.485Z,15.30
2022-10-01T09:07:51.687Z,13.70
2022-10-01T09:10:53.501Z,14.10
2022-10-01T09:13:41.160Z,13.50
2022-10-01T09:16:18.254Z,12.60
2022-10-01T09:19:20.241Z,11.60
2022-10-01T09:21:54.957Z,10.20
2022-10-01T09:24:44.776Z,12.50
2022-10-01T09:27:25.075Z,10.80
2022-10-01T09:29:59.158Z,9.90
2022-10-01T09:32:43.183Z,11.40
2022-10-01T09:35:26.449Z,11.30
2022-10-01T09:38:15.912Z,13.10
2022-10-01T09:40:57.876Z,10.20
2022-10-01T09:43:33.365Z,10.30
2022-10-01T09:46:13.684Z,11.40
2022-10-01T09:48:59.386Z,11.20
2022-10-01T09:51:34.825Z,10.40
2022-10-01T09:54:33.507Z,10.30
2022-10-01T09:57:26.775Z,11.70
2022-10-01T10:00:05.139Z,9.80
2022-10-01T10:02:39.329Z,9.20
2022-10-01T10:05:17.729Z,8.70
2022-10-01T10:08:12.309Z,8.10
2022-10-01T10:10:49.107Z,10.00
2022-10-01T10:13:44.679Z,10.00
2022-10-01T10:16:28.994Z,9.00
2022-10-01T10:19:22.829Z,7.90
2022-10-01T10:21:53.533Z,8.40
2022-10-01T10:24:34.659Z,12.00
2022-10-01T10:27:07.331Z,9.50
2022-10-01T10:29:37.112Z,9.20
2022-10-01T10:32:27.059Z,10.40
2022-10-01T10:35:10.329Z,8.30
2022-10-01T10:37:47.735Z,9.30
2022-10-01T10:40:27.101Z,9.30
2022-10-01T10:42:59.462Z,8.60
2022-10-01T10:45:38.265Z,9.20
2022-10-01T10:48:17.814Z,7.50
2022-10-01T10:50:47.539Z,7.40
2022-10-01T10:53:22.668Z,7.60
2022-10-01T10:56:04.350Z,7.80
2022-10-01T10:58:45.303Z,6.80
2022-10-01T11:01:21.447Z,6.80
2022-10-01T11:03:56.251Z,7.50
2022-10-01T11:06:24.971Z,8.20
2022-10-01T11:09:08.691Z,7.90
2022-10-01T11:11:45.925Z,7.60
2022-10-01T11:14:48.511Z,6.60
2022-10-01T11:17:41.572Z,8.40
2022-10-01T11:20:34.185Z,6.20
2022-10-01T11:23:05.180Z,3.90
2022-10-01T11:25:44.425Z,3.60
2022-10-01T11:28:22.939Z,3.00
2022-10-01T11:33:46.715Z,2.60
2022-10-01T11:36:54.700Z,2.80
2022-10-01T11:42:05.712Z,2.20
2022-10-01T11:44:43.746Z,2.70
2022-10-01T11:47:37.162Z,3.50
2022-10-01T11:50:15.294Z,2.80
2022-10-01T11:53:11.974Z,4.40
2022-10-01T11:56:05.864Z,4.70
2022-10-01T11:58:54.764Z,3.50
2022-10-01T12:03:54.233Z,3.80
2022-10-01T12:06:41.372Z,3.90
2022-10-01T12:09:18.079Z,3.30
2022-10-01T12:11:56.545Z,2.50
2022-10-01T12:14:32.881Z,3.10
2022-10-01T12:17:26.097Z,4.00
2022-10-01T12:19:57.352Z,3.70
2022-10-01T12:22:31.580Z,2.70
2022-10-01T12:25:00.582Z,2.50
2022-10-01T12:27:48.497Z,2.50
2022-10-01T12:30:21.794Z,3.40
2022-10-01T12:33:23.327Z,6.60
2022-10-01T12:36:01.452Z,3.20
2022-10-01T12:38:59.901Z,4.20
2022-10-01T12:41:31.115Z,3.70
2022-10-01T12:44:15.325Z,3.40
2022-10-01T12:47:14.323Z,3.90
2022-10-01T12:49:56.532Z,3.70
2022-10-01T12:52:52.536Z,2.70
2022-10-01T12:55:59.203Z,2.80
2022-10-01T12:58:46.246Z,4.00
2022-10-01T13:01:41.608Z,2.40
2022-10-01T13:04:35.980Z,3.20
2022-10-01T13:07:23.675Z,3.50
2022-10-01T13:10:18.867Z,3.40
2022-10-01T13:13:12.566Z,3.50
2022-10-01T13:15:47.766Z,2.00
2022-10-01T13:20:40.049Z,3.00
2022-10-01T13:23:59.208Z,3.00
2022-10-01T13:27:00.280Z,4.40
2022-10-01T13:29:48.701Z,2.40
2022-10-01T13:32:26.121Z,3.10
2022-10-01T13:34:55.079Z,4.50
2022-10-01T13:37:30.415Z,3.30
2022-10-01T13:39:59.903Z,3.80
2022-10-01T13:45:41.351Z,3.60
2022-10-01T13:48:19.082Z,4.00
2022-10-01T13:51:03.683Z,4.00
2022-10-01T13:53:38.165Z,2.50
2022-10-01T13:56:12.979Z,4.40
2022-10-01T13:58:43.667Z,4.00
2022-10-01T14:01:23.617Z,4.00
2022-10-01T14:04:21.782Z,3.80
2022-10-01T14:06:57.615Z,3.70
2022-10-01T14:09:31.690Z,3.30
2022-10-01T14:12:46.578Z,2.50
2022-10-01T14:15:42.819Z,3.90
2022-10-01T14:18:21.670Z,3.40
2022-10-01T14:21:38.597Z,3.90
2022-10-01T14:24:28.262Z,3.70
2022-10-01T14:27:21.491Z,5.50
2022-10-01T14:30:30.839Z,3.50
2022-10-01T14:33:28.456Z,4.40
2022-10-01T14:36:24.929Z,4.00
2022-10-01T14:39:03.852Z,4.50
2022-10-01T14:41:35.363Z,5.30
2022-10-01T14:44:34.102Z,4.60
2022-10-01T14:47:23.343Z,4.90
2022-10-01T14:49:54.771Z,6.50
2022-10-01T14:52:34.434Z,5.10
2022-10-01T14:55:16.954Z,6.10
2022-10-01T14:57:52.493Z,5.00
2022-10-01T15:00:28.056Z,5.90
2022-10-01T15:03:10.876Z,6.20
2022-10-01T15:05:47.402Z,4.20
2022-10-01T15:08:42.202Z,4.00
2022-10-01T15:11:15.400Z,2.70
2022-10-01T15:13:49.341Z,4.60
2022-10-01T15:16:21.968Z,3.80
2022-10-01T15:19:34.083Z,5.40
2022-10-01T15:22:19.860Z,5.40
2022-10-01T15:24:53.372Z,5.20
2022-10-01T15:27:44.189Z,5.90
2022-10-01T15:30:28.083Z,3.90
2022-10-01T15:32:58.731Z,5.40
2022-10-01T15:35:30.554Z,4.80
2022-10-01T15:38:00.887Z,3.70
2022-10-01T15:40:35.356Z,4.30
2022-10-01T15:43:10.480Z,5.30
2022-10-01T15:45:40.720Z,4.70
2022-10-01T15:48:30.908Z,6.50
2022-10-01T15:51:07.023Z,6.90
2022-10-01T15:53:40.868Z,4.20
2022-10-01T15:56:14.451Z,4.00
2022-10-01T15:58:58.599Z,3.20
2022-10-01T16:01:45.620Z,4.40
2022-10-01T16:04:15.127Z,4.50
2022-10-01T16:06:49.973Z,3.80
2022-10-01T16:09:24.284Z,3.30
2022-10-01T16:11:57.566Z,3.70
2022-10-01T16:14:31.929Z,2.60
2022-10-01T16:17:24.163Z,2.60
2022-10-01T16:19:57.194Z,2.70
2022-10-01T16:22:39.924Z,2.40
2022-10-01T16:25:23.502Z,2.60
2022-10-01T16:28:21.299Z,3.30
2022-10-01T16:30:58.453Z,3.70
2022-10-01T16:33:27.469Z,4.20
2022-10-01T16:36:19.418Z,3.10
2022-10-01T16:38:58.671Z,3.00
2022-10-01T16:41:30.610Z,4.00
2022-10-01T16:44:03.226Z,3.80
2022-10-01T16:46:42.888Z,3.90
2022-10-01T16:49:15.783Z,4.00
2022-10-01T16:51:46.784Z,4.10
2022-10-01T16:54:38.106Z,3.50
2022-10-01T16:57:11.551Z,4.10
2022-10-01T17:00:22.639Z,4.60
2022-10-01T17:03:20.392Z,3.70
2022-10-01T17:05:52.769Z,5.30
2022-10-01T17:08:36.427Z,5.10
2022-10-01T17:11:28.836Z,3.60
2022-10-01T17:14:08.901Z,3.00
2022-10-01T17:16:43.246Z,5.10
2022-10-01T17:19:13.573Z,5.50
2022-10-01T17:21:42.036Z,3.60
2022-10-01T17:24:14.931Z,3.80
2022-10-01T17:26:47.170Z,4.00
2022-10-01T17:29:19.326Z,3.20
2022-10-01T17:31:56.453Z,4.00
2022-10-01T17:34:39.669Z,4.10
2022-10-01T17:37:09.364Z,5.20
2022-10-01T17:39:38.526Z,3.90
2022-10-01T17:42:13.204Z,4.80
2022-10-01T17:44:56.168Z,4.40
2022-10-01T17:47:27.823Z,6.00
2022-10-01T17:50:02.340Z,5.20
2022-10-01T17:52:32.317Z,5.10
2022-10-01T17:55:00.884Z,5.10
2022-10-01T17:57:32.787Z,5.00
2022-10-01T18:00:09.751Z,5.60
2022-10-01T18:02:50.546Z,5.60
2022-10-01T18:05:30.740Z,6.30
2022-10-01T18:08:03.372Z,5.40
2022-10-01T18:10:42.151Z,5.00
2022-10-01T18:13:30.491Z,7.00
2022-10-01T18:16:14.121Z,7.60
2022-10-01T18:21:55.497Z,7.20
2022-10-01T18:24:27.546Z,7.90
2022-10-01T18:26:59.255Z,6.60
2022-10-01T18:29:40.376Z,8.00
2022-10-01T18:32:19.561Z,6.00
2022-10-01T18:35:00.659Z,6.60
2022-10-01T18:37:49.949Z,9.10
2022-10-01T18:40:29.614Z,6.90
2022-10-01T18:43:13.624Z,6.50
2022-10-01T18:46:08.731Z,5.60
2022-10-01T18:48:55.128Z,7.90
2022-10-01T18:52:07.569Z,7.30
2022-10-01T18:55:17.716Z,7.40
2022-10-01T18:58:27.856Z,6.30
2022-10-01T19:01:40.054Z,5.50
2022-10-01T19:04:26.952Z,3.80
2022-10-01T19:07:16.719Z,4.40
2022-10-01T19:09:54.240Z,4.50
2022-10-01T19:12:42.462Z,4.30
2022-10-01T19:15:29.557Z,4.50
2022-10-01T19:18:07.144Z,4.80
2022-10-01T19:21:06.912Z,5.30
2022-10-01T19:23:48.657Z,5.60
2022-10-01T19:26:26.763Z,7.10
2022-10-01T19:29:39.674Z,4.10
2022-10-01T19:32:21.523Z,4.90
2022-10-01T19:34:57.543Z,8.00
2022-10-01T19:37:38.305Z,5.20
2022-10-01T19:40:22.796Z,5.50
2022-10-01T19:43:08.464Z,5.20
2022-10-01T19:45:47.839Z,6.30
2022-10-01T19:48:37.643Z,4.90
2022-10-01T19:51:15.381Z,6.30
2022-10-01T19:54:04.749Z,7.60
2022-10-01T19:56:40.021Z,6.60
2022-10-01T19:59:16.898Z,6.30
2022-10-01T20:02:04.213Z,6.70
2022-10-01T20:04:41.177Z,6.40
2022-10-01T20:07:23.568Z,6.60
2022-10-01T20:10:15.422Z,6.40
2022-10-01T20:13:10.219Z,6.60
2022-10-01T20:16:10.455Z,6.50
2022-10-01T20:21:53.700Z,6.10
2022-10-01T20:24:49.524Z,6.90
2022-10-01T20:27:39.793Z,5.20
2022-10-01T20:30:30.842Z,5.40
2022-10-01T20:33:24.388Z,6.80
2022-10-01T20:36:42.327Z,5.50
2022-10-01T20:39:29.289Z,6.20
2022-10-01T20:42:11.339Z,5.40
2022-10-01T20:44:45.416Z,5.30
2022-10-01T20:47:40.466Z,6.50
2022-10-01T20:50:26.301Z,5.70
2022-10-01T20:53:04.530Z,5.30
2022-10-01T20:56:17.534Z,5.10
2022-10-01T20:59:19.900Z,4.90
2022-10-01T21:02:46.295Z,5.90
2022-10-01T21:05:32.664Z,6.40
2022-10-01T21:08:41.739Z,5.70
2022-10-01T21:11:22.227Z,7.30
2022-10-01T21:14:07.428Z,6.00
2022-10-01T21:16:50.867Z,7.20
2022-10-01T21:19:41.198Z,6.20
2022-10-01T21:22:48.511Z,6.00
2022-10-01T21:25:24.893Z,7.50
2022-10-01T21:28:06.864Z,6.20
2022-10-01T21:31:01.575Z,5.30
2022-10-01T21:34:03.006Z,6.10
2022-10-01T21:36:38.217Z,5.90
2022-10-01T21:39:17.315Z,4.40
2022-10-01T21:42:25.569Z,4.60
2022-10-01T21:45:23.360Z,5.90
2022-10-01T21:48:42.507Z,4.40
2022-10-01T21:51:17.772Z,4.40
2022-10-01T21:54:15.105Z,4.60
2022-10-01T21:57:28.535Z,5.60
2022-10-01T22:00:21.839Z,4.20
2022-10-01T22:03:02.369Z,3.60
2022-10-01T22:05:38.115Z,5.00
2022-10-01T22:08:37.199Z,4.70
2022-10-01T22:11:35.119Z,4.90
2022-10-01T22:14:12.953Z,4.20
2022-10-01T22:16:54.598Z,4.90
2022-10-01T22:19:34.623Z,4.80
2022-10-01T22:22:13.568Z,4.80
2022-10-01T22:24:49.175Z,5.30
2022-10-01T22:28:03.813Z,5.40
2022-10-01T22:30:36.827Z,6.40
2022-10-01T22:33:12.776Z,5.10
2022-10-01T22:35:56.038Z,6.00
2022-10-01T22:38:39.139Z,4.90
2022-10-01T22:41:33.410Z,5.10
2022-10-01T22:44:10.478Z,5.20
2022-10-01T22:46:48.279Z,4.20
2022-10-01T22:49:20.789Z,5.20
2022-10-01T22:51:49.824Z,4.30
2022-10-01T22:54:59.080Z,5.80
2022-10-01T22:58:09.566Z,4.30
2022-10-01T23:01:38.459Z,3.70
2022-10-01T23:04:47.632Z,3.10
2022-10-01T23:07:37.970Z,3.50
2022-10-01T23:10:15.575Z,4.00
2022-10-01T23:12:58.178Z,2.60
2022-10-01T23:16:04.362Z,2.10
2022-10-01T23:19:03.806Z,3.00
2022-10-01T23:22:11.125Z,3.40
2022-10-01T23:25:20.842Z,2.40
2022-10-01T23:28:17.549Z,2.90
2022-10-01T23:31:01.297Z,2.70
2022-10-01T23:34:07.093Z,2.60
2022-10-01T23:40:07.582Z,3.30
2022-10-01T23:45:25.590Z,2.50
2022-10-01T23:48:44.993Z,3.30
2022-10-01T23:51:28.177Z,2.60
2022-10-01T23:54:54.326Z,3.80
2022-10-01T23:57:47.297Z,3.30
